sensor_id;sensor_type;location;lat;lon;timestamp;temperature;humidity
46123;DHT22;31856;-35.404;149.120;2024-03-08T00:01:49;24.10;57.00
46123;DHT22;31856;-35.404;149.120;2024-03-08T00:04:18;24.30;56.90
46123;DHT22;31856;-35.404;149.120;2024-03-08T00:06:48;24.40;57.30
46123;DHT22;31856;-35.404;149.120;2024-03-08T00:09:19;24.70;56.80
46123;DHT22;31856;-35.404;149.120;2024-03-08T00:11:50;24.80;56.10
46123;DHT22;31856;-35.404;149.120;2024-03-08T00:14:21;25.00;56.00
46123;DHT22;31856;-35.404;149.120;2024-03-08T00:16:51;25.00;55.50
46123;DHT22;31856;-35.404;149.120;2024-03-08T00:19:21;25.00;55.40
46123;DHT22;31856;-35.404;149.120;2024-03-08T00:21:50;25.00;55.50
46123;DHT22;31856;-35.404;149.120;2024-03-08T00:24:20;24.80;55.60
46123;DHT22;31856;-35.404;149.120;2024-03-08T00:26:53;24.60;56.20
46123;DHT22;31856;-35.404;149.120;2024-03-08T00:29:23;24.60;56.50
46123;DHT22;31856;-35.404;149.120;2024-03-08T00:31:53;24.80;56.30
46123;DHT22;31856;-35.404;149.120;2024-03-08T00:34:23;25.10;55.90
46123;DHT22;31856;-35.404;149.120;2024-03-08T00:36:59;25.30;55.30
46123;DHT22;31856;-35.404;149.120;2024-03-08T00:39:29;25.50;55.00
46123;DHT22;31856;-35.404;149.120;2024-03-08T00:42:00;25.70;54.60
46123;DHT22;31856;-35.404;149.120;2024-03-08T00:44:29;25.90;54.10
46123;DHT22;31856;-35.404;149.120;2024-03-08T00:47:00;26.10;53.70
46123;DHT22;31856;-35.404;149.120;2024-03-08T00:49:30;26.30;53.40
46123;DHT22;31856;-35.404;149.120;2024-03-08T00:52:00;26.40;52.90
46123;DHT22;31856;-35.404;149.120;2024-03-08T00:54:30;26.60;52.10
46123;DHT22;31856;-35.404;149.120;2024-03-08T00:56:59;26.70;52.00
46123;DHT22;31856;-35.404;149.120;2024-03-08T00:59:32;26.90;51.60
46123;DHT22;31856;-35.404;149.120;2024-03-08T01:02:02;27.10;51.30
46123;DHT22;31856;-35.404;149.120;2024-03-08T02:17:20;28.80;46.40
46123;DHT22;31856;-35.404;149.120;2024-03-08T02:19:51;29.00;45.90
46123;DHT22;31856;-35.404;149.120;2024-03-08T02:22:24;29.10;45.60
46123;DHT22;31856;-35.404;149.120;2024-03-08T02:24:54;29.00;45.40
46123;DHT22;31856;-35.404;149.120;2024-03-08T02:27:24;29.00;44.40
46123;DHT22;31856;-35.404;149.120;2024-03-08T02:29:55;29.00;44.60
46123;DHT22;31856;-35.404;149.120;2024-03-08T02:32:26;28.80;44.50
46123;DHT22;31856;-35.404;149.120;2024-03-08T02:34:56;28.90;44.90
46123;DHT22;31856;-35.404;149.120;2024-03-08T02:37:28;29.10;44.50
46123;DHT22;31856;-35.404;149.120;2024-03-08T02:39:58;29.20;43.30
46123;DHT22;31856;-35.404;149.120;2024-03-08T02:42:28;29.20;43.50
46123;DHT22;31856;-35.404;149.120;2024-03-08T02:44:58;29.20;43.80
46123;DHT22;31856;-35.404;149.120;2024-03-08T02:47:28;29.30;44.20
46123;DHT22;31856;-35.404;149.120;2024-03-08T02:50:00;29.20;44.30
46123;DHT22;31856;-35.404;149.120;2024-03-08T02:52:30;29.20;44.60
46123;DHT22;31856;-35.404;149.120;2024-03-08T02:55:00;29.30;44.20
46123;DHT22;31856;-35.404;149.120;2024-03-08T02:57:30;29.40;44.30
46123;DHT22;31856;-35.404;149.120;2024-03-08T02:59:59;29.50;44.60
46123;DHT22;31856;-35.404;149.120;2024-03-08T03:02:29;29.60;44.30
46123;DHT22;31856;-35.404;149.120;2024-03-08T03:04:59;29.60;43.60
46123;DHT22;31856;-35.404;149.120;2024-03-08T03:07:34;29.60;43.70
46123;DHT22;31856;-35.404;149.120;2024-03-08T03:10:04;29.60;44.00
46123;DHT22;31856;-35.404;149.120;2024-03-08T03:12:33;29.80;43.70
46123;DHT22;31856;-35.404;149.120;2024-03-08T03:15:04;29.80;43.40
46123;DHT22;31856;-35.404;149.120;2024-03-08T04:56:15;31.10;40.30
46123;DHT22;31856;-35.404;149.120;2024-03-08T04:58:45;31.10;40.30
46123;DHT22;31856;-35.404;149.120;2024-03-08T05:01:18;31.00;40.50
46123;DHT22;31856;-35.404;149.120;2024-03-08T05:03:48;30.90;40.10
46123;DHT22;31856;-35.404;149.120;2024-03-08T05:06:19;30.90;40.50
46123;DHT22;31856;-35.404;149.120;2024-03-08T05:08:49;31.00;40.40
46123;DHT22;31856;-35.404;149.120;2024-03-08T05:11:19;31.00;40.70
46123;DHT22;31856;-35.404;149.120;2024-03-08T05:13:49;31.10;40.50
46123;DHT22;31856;-35.404;149.120;2024-03-08T05:16:23;31.20;39.90
46123;DHT22;31856;-35.404;149.120;2024-03-08T05:18:53;31.30;40.30
46123;DHT22;31856;-35.404;149.120;2024-03-08T05:21:23;31.30;39.80
46123;DHT22;31856;-35.404;149.120;2024-03-08T05:23:53;31.30;40.10
46123;DHT22;31856;-35.404;149.120;2024-03-08T05:26:22;31.20;39.50
46123;DHT22;31856;-35.404;149.120;2024-03-08T05:28:52;31.00;40.30
46123;DHT22;31856;-35.404;149.120;2024-03-08T05:31:22;30.90;40.40
46123;DHT22;31856;-35.404;149.120;2024-03-08T05:33:52;30.90;40.50
46123;DHT22;31856;-35.404;149.120;2024-03-08T05:36:24;30.90;40.30
46123;DHT22;31856;-35.404;149.120;2024-03-08T05:38:55;31.00;40.40
46123;DHT22;31856;-35.404;149.120;2024-03-08T05:41:25;31.00;40.30
46123;DHT22;31856;-35.404;149.120;2024-03-08T05:43:55;31.10;40.20
46123;DHT22;31856;-35.404;149.120;2024-03-08T05:46:26;31.00;40.70
46123;DHT22;31856;-35.404;149.120;2024-03-08T05:48:56;31.10;40.50
46123;DHT22;31856;-35.404;149.120;2024-03-08T05:51:27;31.20;40.10
46123;DHT22;31856;-35.404;149.120;2024-03-08T05:53:57;31.10;40.30
46123;DHT22;31856;-35.404;149.120;2024-03-08T05:56:27;31.10;40.50
46123;DHT22;31856;-35.404;149.120;2024-03-08T05:58:58;31.20;40.10
46123;DHT22;31856;-35.404;149.120;2024-03-08T06:01:28;31.20;39.70
46123;DHT22;31856;-35.404;149.120;2024-03-08T06:03:58;31.20;40.10
46123;DHT22;31856;-35.404;149.120;2024-03-08T06:06:28;31.20;40.40
46123;DHT22;31856;-35.404;149.120;2024-03-08T06:08:58;31.20;40.70
46123;DHT22;31856;-35.404;149.120;2024-03-08T06:11:28;31.20;40.50
46123;DHT22;31856;-35.404;149.120;2024-03-08T06:13:59;31.20;40.80
46123;DHT22;31856;-35.404;149.120;2024-03-08T06:16:29;31.10;40.50
46123;DHT22;31856;-35.404;149.120;2024-03-08T06:18:58;31.10;40.30
46123;DHT22;31856;-35.404;149.120;2024-03-08T06:21:31;31.10;40.00
46123;DHT22;31856;-35.404;149.120;2024-03-08T06:24:00;31.10;40.00
46123;DHT22;31856;-35.404;149.120;2024-03-08T06:26:30;31.10;40.20
46123;DHT22;31856;-35.404;149.120;2024-03-08T06:29:03;31.20;40.20
46123;DHT22;31856;-35.404;149.120;2024-03-08T06:31:35;31.10;40.50
46123;DHT22;31856;-35.404;149.120;2024-03-08T06:34:07;31.00;40.60
46123;DHT22;31856;-35.404;149.120;2024-03-08T06:36:38;31.10;41.00
46123;DHT22;31856;-35.404;149.120;2024-03-08T06:39:07;31.10;40.90
46123;DHT22;31856;-35.404;149.120;2024-03-08T06:41:40;31.10;41.60
46123;DHT22;31856;-35.404;149.120;2024-03-08T06:44:10;31.10;42.10
46123;DHT22;31856;-35.404;149.120;2024-03-08T06:46:39;31.00;42.30
46123;DHT22;31856;-35.404;149.120;2024-03-08T06:49:09;31.00;42.10
46123;DHT22;31856;-35.404;149.120;2024-03-08T07:03:52;30.70;42.40
46123;DHT22;31856;-35.404;149.120;2024-03-08T07:06:21;30.60;42.80
46123;DHT22;31856;-35.404;149.120;2024-03-08T07:08:51;30.40;43.00
46123;DHT22;31856;-35.404;149.120;2024-03-08T07:11:21;30.30;43.10
46123;DHT22;31856;-35.404;149.120;2024-03-08T07:13:50;30.20;43.60
46123;DHT22;31856;-35.404;149.120;2024-03-08T07:16:20;30.00;43.80
46123;DHT22;31856;-35.404;149.120;2024-03-08T07:18:50;29.70;44.00
46123;DHT22;31856;-35.404;149.120;2024-03-08T07:21:21;29.70;44.50
46123;DHT22;31856;-35.404;149.120;2024-03-08T07:23:50;29.60;44.60
46123;DHT22;31856;-35.404;149.120;2024-03-08T07:26:29;29.40;45.00
46123;DHT22;31856;-35.404;149.120;2024-03-08T07:28:59;29.40;45.30
46123;DHT22;31856;-35.404;149.120;2024-03-08T07:31:29;29.30;45.60
46123;DHT22;31856;-35.404;149.120;2024-03-08T07:34:21;29.20;45.80
46123;DHT22;31856;-35.404;149.120;2024-03-08T07:36:51;29.10;45.80
46123;DHT22;31856;-35.404;149.120;2024-03-08T07:39:20;29.00;45.60
46123;DHT22;31856;-35.404;149.120;2024-03-08T07:41:52;28.90;45.70
46123;DHT22;31856;-35.404;149.120;2024-03-08T07:44:22;28.80;45.80
46123;DHT22;31856;-35.404;149.120;2024-03-08T07:46:52;28.70;46.00
46123;DHT22;31856;-35.404;149.120;2024-03-08T07:49:24;28.70;46.20
46123;DHT22;31856;-35.404;149.120;2024-03-08T07:51:54;28.70;46.60
46123;DHT22;31856;-35.404;149.120;2024-03-08T07:54:23;28.60;47.00
46123;DHT22;31856;-35.404;149.120;2024-03-08T07:56:55;28.50;47.50
46123;DHT22;31856;-35.404;149.120;2024-03-08T07:59:24;28.40;47.80
46123;DHT22;31856;-35.404;149.120;2024-03-08T08:01:54;28.30;48.20
46123;DHT22;31856;-35.404;149.120;2024-03-08T08:14:31;28.10;49.30
46123;DHT22;31856;-35.404;149.120;2024-03-08T08:17:01;28.10;49.60
46123;DHT22;31856;-35.404;149.120;2024-03-08T08:19:32;28.00;49.70
46123;DHT22;31856;-35.404;149.120;2024-03-08T08:22:02;27.90;49.90
46123;DHT22;31856;-35.404;149.120;2024-03-08T08:24:31;27.90;50.10
46123;DHT22;31856;-35.404;149.120;2024-03-08T08:27:01;27.80;50.60
46123;DHT22;31856;-35.404;149.120;2024-03-08T08:29:30;27.80;50.70
46123;DHT22;31856;-35.404;149.120;2024-03-08T08:32:01;27.70;50.80
46123;DHT22;31856;-35.404;149.120;2024-03-08T08:34:31;27.70;51.00
46123;DHT22;31856;-35.404;149.120;2024-03-08T08:37:01;27.60;51.20
46123;DHT22;31856;-35.404;149.120;2024-03-08T08:39:31;27.50;51.20
46123;DHT22;31856;-35.404;149.120;2024-03-08T08:42:01;27.50;51.40
46123;DHT22;31856;-35.404;149.120;2024-03-08T08:44:32;27.40;51.80
46123;DHT22;31856;-35.404;149.120;2024-03-08T08:47:04;27.30;51.90
46123;DHT22;31856;-35.404;149.120;2024-03-08T08:49:42;27.30;52.10
46123;DHT22;31856;-35.404;149.120;2024-03-08T08:52:12;27.20;52.40
46123;DHT22;31856;-35.404;149.120;2024-03-08T08:54:43;27.20;52.40
46123;DHT22;31856;-35.404;149.120;2024-03-08T08:57:16;27.10;52.70
46123;DHT22;31856;-35.404;149.120;2024-03-08T08:59:47;27.10;52.80
46123;DHT22;31856;-35.404;149.120;2024-03-08T09:02:18;27.00;53.00
46123;DHT22;31856;-35.404;149.120;2024-03-08T09:04:50;27.00;53.20
46123;DHT22;31856;-35.404;149.120;2024-03-08T09:07:19;26.90;53.60
46123;DHT22;31856;-35.404;149.120;2024-03-08T09:09:49;26.80;53.80
46123;DHT22;31856;-35.404;149.120;2024-03-08T09:12:20;26.80;54.00
46123;DHT22;31856;-35.404;149.120;2024-03-08T09:43:29;26.40;55.80
46123;DHT22;31856;-35.404;149.120;2024-03-08T09:46:03;26.40;55.90
46123;DHT22;31856;-35.404;149.120;2024-03-08T09:48:38;26.40;56.20
46123;DHT22;31856;-35.404;149.120;2024-03-08T09:51:10;26.40;56.10
46123;DHT22;31856;-35.404;149.120;2024-03-08T09:53:43;26.30;56.40
46123;DHT22;31856;-35.404;149.120;2024-03-08T09:56:16;26.30;56.50
46123;DHT22;31856;-35.404;149.120;2024-03-08T09:58:46;26.30;56.90
46123;DHT22;31856;-35.404;149.120;2024-03-08T10:01:39;26.30;56.90
46123;DHT22;31856;-35.404;149.120;2024-03-08T10:04:09;26.20;57.10
46123;DHT22;31856;-35.404;149.120;2024-03-08T10:06:42;26.20;57.20
46123;DHT22;31856;-35.404;149.120;2024-03-08T10:09:12;26.20;57.30
46123;DHT22;31856;-35.404;149.120;2024-03-08T10:11:42;26.10;57.60
46123;DHT22;31856;-35.404;149.120;2024-03-08T10:14:13;26.10;58.00
46123;DHT22;31856;-35.404;149.120;2024-03-08T10:16:45;26.10;58.00
46123;DHT22;31856;-35.404;149.120;2024-03-08T10:19:15;26.00;58.30
46123;DHT22;31856;-35.404;149.120;2024-03-08T10:21:52;26.00;58.40
46123;DHT22;31856;-35.404;149.120;2024-03-08T10:24:23;25.90;59.00
46123;DHT22;31856;-35.404;149.120;2024-03-08T10:26:53;25.90;59.50
46123;DHT22;31856;-35.404;149.120;2024-03-08T10:29:23;25.90;59.50
46123;DHT22;31856;-35.404;149.120;2024-03-08T10:31:54;25.80;59.90
46123;DHT22;31856;-35.404;149.120;2024-03-08T10:34:25;25.80;60.00
46123;DHT22;31856;-35.404;149.120;2024-03-08T10:36:54;25.80;60.50
46123;DHT22;31856;-35.404;149.120;2024-03-08T10:39:28;25.70;60.80
46123;DHT22;31856;-35.404;149.120;2024-03-08T10:42:04;25.70;60.70
46123;DHT22;31856;-35.404;149.120;2024-03-08T18:58:16;20.70;73.60
46123;DHT22;31856;-35.404;149.120;2024-03-08T19:00:57;20.70;74.00
46123;DHT22;31856;-35.404;149.120;2024-03-08T19:03:26;20.70;73.90
46123;DHT22;31856;-35.404;149.120;2024-03-08T19:05:56;20.60;74.20
46123;DHT22;31856;-35.404;149.120;2024-03-08T19:08:25;20.60;74.20
46123;DHT22;31856;-35.404;149.120;2024-03-08T19:10:55;20.50;74.40
46123;DHT22;31856;-35.404;149.120;2024-03-08T19:13:26;20.50;74.50
46123;DHT22;31856;-35.404;149.120;2024-03-08T19:15:56;20.50;74.60
46123;DHT22;31856;-35.404;149.120;2024-03-08T19:18:26;20.50;74.60
46123;DHT22;31856;-35.404;149.120;2024-03-08T19:20:57;20.50;74.50
46123;DHT22;31856;-35.404;149.120;2024-03-08T19:23:27;20.50;74.50
46123;DHT22;31856;-35.404;149.120;2024-03-08T19:25:59;20.50;74.70
46123;DHT22;31856;-35.404;149.120;2024-03-08T19:28:29;20.50;74.80
46123;DHT22;31856;-35.404;149.120;2024-03-08T19:31:03;20.50;74.90
46123;DHT22;31856;-35.404;149.120;2024-03-08T19:33:32;20.40;75.10
46123;DHT22;31856;-35.404;149.120;2024-03-08T19:36:02;20.40;75.10
46123;DHT22;31856;-35.404;149.120;2024-03-08T19:38:33;20.50;75.10
46123;DHT22;31856;-35.404;149.120;2024-03-08T19:41:03;20.40;75.20
46123;DHT22;31856;-35.404;149.120;2024-03-08T19:43:33;20.40;75.10
46123;DHT22;31856;-35.404;149.120;2024-03-08T19:46:03;20.40;74.90
46123;DHT22;31856;-35.404;149.120;2024-03-08T19:48:39;20.40;75.10
46123;DHT22;31856;-35.404;149.120;2024-03-08T19:51:10;20.40;75.40
46123;DHT22;31856;-35.404;149.120;2024-03-08T19:53:42;20.30;75.50
46123;DHT22;31856;-35.404;149.120;2024-03-08T20:15:45;20.30;76.30
46123;DHT22;31856;-35.404;149.120;2024-03-08T20:18:21;20.30;76.20
46123;DHT22;31856;-35.404;149.120;2024-03-08T20:20:55;20.30;76.40
46123;DHT22;31856;-35.404;149.120;2024-03-08T20:23:26;20.30;76.40
46123;DHT22;31856;-35.404;149.120;2024-03-08T20:25:58;20.30;76.40
46123;DHT22;31856;-35.404;149.120;2024-03-08T20:28:32;20.30;76.50
46123;DHT22;31856;-35.404;149.120;2024-03-08T20:31:02;20.40;76.30
46123;DHT22;31856;-35.404;149.120;2024-03-08T20:33:33;20.40;76.30
46123;DHT22;31856;-35.404;149.120;2024-03-08T20:36:05;20.50;76.30
46123;DHT22;31856;-35.404;149.120;2024-03-08T20:38:35;20.50;76.50
46123;DHT22;31856;-35.404;149.120;2024-03-08T20:41:05;20.40;77.20
46123;DHT22;31856;-35.404;149.120;2024-03-08T20:43:40;20.40;77.10
46123;DHT22;31856;-35.404;149.120;2024-03-08T20:46:10;20.40;77.20
46123;DHT22;31856;-35.404;149.120;2024-03-08T20:48:40;20.40;76.80
46123;DHT22;31856;-35.404;149.120;2024-03-08T20:51:14;20.40;76.60
46123;DHT22;31856;-35.404;149.120;2024-03-08T20:53:45;20.30;76.30
46123;DHT22;31856;-35.404;149.120;2024-03-08T20:56:15;20.30;76.30
46123;DHT22;31856;-35.404;149.120;2024-03-08T20:58:44;20.40;76.30
46123;DHT22;31856;-35.404;149.120;2024-03-08T21:01:14;20.50;76.30
46123;DHT22;31856;-35.404;149.120;2024-03-08T21:03:45;20.50;76.50
46123;DHT22;31856;-35.404;149.120;2024-03-08T21:06:15;20.50;76.40
46123;DHT22;31856;-35.404;149.120;2024-03-08T21:08:47;20.50;76.50
46123;DHT22;31856;-35.404;149.120;2024-03-08T21:11:16;20.60;76.20
46123;DHT22;31856;-35.404;149.120;2024-03-08T21:13:46;20.70;75.70
46123;DHT22;31856;-35.404;149.120;2024-03-08T21:16:18;20.70;75.30
46123;DHT22;31856;-35.404;149.120;2024-03-08T21:18:47;20.90;75.00
46123;DHT22;31856;-35.404;149.120;2024-03-08T21:21:17;21.30;73.80
46123;DHT22;31856;-35.404;149.120;2024-03-08T21:23:47;21.20;73.60
46123;DHT22;31856;-35.404;149.120;2024-03-08T21:26:17;21.30;73.50
46123;DHT22;31856;-35.404;149.120;2024-03-08T21:28:47;21.40;73.30
46123;DHT22;31856;-35.404;149.120;2024-03-08T21:31:17;21.30;73.70
46123;DHT22;31856;-35.404;149.120;2024-03-08T21:33:49;21.30;73.80
46123;DHT22;31856;-35.404;149.120;2024-03-08T21:36:18;21.20;73.30
46123;DHT22;31856;-35.404;149.120;2024-03-08T21:38:49;21.30;73.10
46123;DHT22;31856;-35.404;149.120;2024-03-08T21:41:19;21.50;72.50
46123;DHT22;31856;-35.404;149.120;2024-03-08T21:43:49;21.70;71.20
46123;DHT22;31856;-35.404;149.120;2024-03-08T21:46:20;21.90;70.20
46123;DHT22;31856;-35.404;149.120;2024-03-08T21:48:49;22.00;69.80
46123;DHT22;31856;-35.404;149.120;2024-03-08T21:51:19;22.20;69.30
46123;DHT22;31856;-35.404;149.120;2024-03-08T21:53:50;22.20;68.50
46123;DHT22;31856;-35.404;149.120;2024-03-08T22:38:41;22.70;63.80
46123;DHT22;31856;-35.404;149.120;2024-03-08T22:41:10;22.70;63.90
46123;DHT22;31856;-35.404;149.120;2024-03-08T22:43:41;22.70;64.10
46123;DHT22;31856;-35.404;149.120;2024-03-08T22:46:13;22.70;64.30
46123;DHT22;31856;-35.404;149.120;2024-03-08T22:48:43;22.70;64.40
46123;DHT22;31856;-35.404;149.120;2024-03-08T22:51:13;22.80;64.40
46123;DHT22;31856;-35.404;149.120;2024-03-08T22:53:44;22.80;64.30
46123;DHT22;31856;-35.404;149.120;2024-03-08T22:56:14;22.80;64.50
46123;DHT22;31856;-35.404;149.120;2024-03-08T22:58:44;22.80;64.60
46123;DHT22;31856;-35.404;149.120;2024-03-08T23:01:14;22.90;64.50
46123;DHT22;31856;-35.404;149.120;2024-03-08T23:03:45;22.90;64.40
46123;DHT22;31856;-35.404;149.120;2024-03-08T23:06:15;22.90;64.10
46123;DHT22;31856;-35.404;149.120;2024-03-08T23:08:49;23.00;64.20
46123;DHT22;31856;-35.404;149.120;2024-03-08T23:11:19;23.00;64.00
46123;DHT22;31856;-35.404;149.120;2024-03-08T23:13:51;23.00;64.10
46123;DHT22;31856;-35.404;149.120;2024-03-08T23:16:21;23.00;63.80
46123;DHT22;31856;-35.404;149.120;2024-03-08T23:18:51;23.10;64.10
46123;DHT22;31856;-35.404;149.120;2024-03-08T23:21:20;23.10;63.70
46123;DHT22;31856;-35.404;149.120;2024-03-08T23:23:50;23.10;63.60
46123;DHT22;31856;-35.404;149.120;2024-03-08T23:26:20;23.20;63.20
46123;DHT22;31856;-35.404;149.120;2024-03-08T23:28:49;23.30;62.90
46123;DHT22;31856;-35.404;149.120;2024-03-08T23:31:19;23.30;62.90
46123;DHT22;31856;-35.404;149.120;2024-03-08T23:33:50;23.30;63.10
